sensor_id;sensor_type;location;lat;lon;timestamp;pressure;altitude;pressure_sealevel;temperature;humidity
14293;BME280;62290;59.420;17.842;2024-01-11T00:01:16;101612.78;;;24.89;21.18
14293;BME280;62290;59.420;17.842;2024-01-11T00:03:45;101604.69;;;24.89;21.26
14293;BME280;62290;59.420;17.842;2024-01-11T00:06:12;101598.44;;;24.89;21.30
14293;BME280;62290;59.420;17.842;2024-01-11T00:08:41;101602.00;;;24.89;21.33
14293;BME280;62290;59.420;17.842;2024-01-11T00:11:10;101592.19;;;24.88;21.04
14293;BME280;62290;59.420;17.842;2024-01-11T00:13:40;101601.38;;;24.86;21.32
14293;BME280;62290;59.420;17.842;2024-01-11T00:16:08;101595.13;;;24.85;21.40
14293;BME280;62290;59.420;17.842;2024-01-11T00:18:36;101597.09;;;24.83;21.47
14293;BME280;62290;59.420;17.842;2024-01-11T00:21:04;101600.75;;;24.82;21.01
14293;BME280;62290;59.420;17.842;2024-01-11T00:23:32;101589.13;;;24.82;21.33
14293;BME280;62290;59.420;17.842;2024-01-11T00:26:00;101588.13;;;24.83;21.43
14293;BME280;62290;59.420;17.842;2024-01-11T00:28:30;101592.66;;;24.82;21.57
14293;BME280;62290;59.420;17.842;2024-01-11T00:30:58;101592.66;;;24.82;21.29
14293;BME280;62290;59.420;17.842;2024-01-11T00:33:26;101593.66;;;24.81;21.23
14293;BME280;62290;59.420;17.842;2024-01-11T00:35:54;101598.06;;;24.82;21.08
14293;BME280;62290;59.420;17.842;2024-01-11T00:38:22;101599.78;;;24.83;21.46
14293;BME280;62290;59.420;17.842;2024-01-11T00:40:50;101609.59;;;24.84;21.20
14293;BME280;62290;59.420;17.842;2024-01-11T00:43:18;101605.19;;;24.83;21.21
14293;BME280;62290;59.420;17.842;2024-01-11T00:45:47;101600.50;;;24.85;21.45
14293;BME280;62290;59.420;17.842;2024-01-11T00:48:15;101607.00;;;24.83;21.33
14293;BME280;62290;59.420;17.842;2024-01-11T00:50:43;101608.75;;;24.84;21.26
14293;BME280;62290;59.420;17.842;2024-01-11T00:53:11;101616.81;;;24.84;21.10
14293;BME280;62290;59.420;17.842;2024-01-11T00:55:41;101607.88;;;24.83;21.09
14293;BME280;62290;59.420;17.842;2024-01-11T00:58:10;101605.19;;;24.83;21.03
14293;BME280;62290;59.420;17.842;2024-01-11T01:00:37;101602.47;;;24.83;21.22
14293;BME280;62290;59.420;17.842;2024-01-11T01:03:07;101603.59;;;24.81;21.21
14293;BME280;62290;59.420;17.842;2024-01-11T01:05:35;101615.00;;;24.84;21.37
14293;BME280;62290;59.420;17.842;2024-01-11T01:08:03;101606.13;;;24.82;21.08
14293;BME280;62290;59.420;17.842;2024-01-11T01:10:31;101613.25;;;24.83;21.08
14293;BME280;62290;59.420;17.842;2024-01-11T01:12:59;101609.59;;;24.84;21.26
14293;BME280;62290;59.420;17.842;2024-01-11T01:15:27;101613.13;;;24.85;21.08
14293;BME280;62290;59.420;17.842;2024-01-11T01:17:55;101610.34;;;24.86;21.29
14293;BME280;62290;59.420;17.842;2024-01-11T01:20:25;101610.19;;;24.88;21.08
14293;BME280;62290;59.420;17.842;2024-01-11T01:22:53;101601.13;;;24.89;21.06
14293;BME280;62290;59.420;17.842;2024-01-11T01:25:21;101601.13;;;24.89;21.24
14293;BME280;62290;59.420;17.842;2024-01-11T01:27:49;101605.81;;;24.87;21.28
14293;BME280;62290;59.420;17.842;2024-01-11T01:30:17;101603.94;;;24.87;21.12
14293;BME280;62290;59.420;17.842;2024-01-11T01:32:45;101604.94;;;24.86;21.29
14293;BME280;62290;59.420;17.842;2024-01-11T01:35:13;101615.81;;;24.85;21.17
14293;BME280;62290;59.420;17.842;2024-01-11T01:37:42;101613.03;;;24.86;21.49
14293;BME280;62290;59.420;17.842;2024-01-11T01:40:11;101625.78;;;24.84;21.37
14293;BME280;62290;59.420;17.842;2024-01-11T01:42:42;101631.16;;;24.84;21.11
14293;BME280;62290;59.420;17.842;2024-01-11T01:45:10;101628.56;;;24.83;21.21
14293;BME280;62290;59.420;17.842;2024-01-11T01:47:40;101637.53;;;24.83;21.22
14293;BME280;62290;59.420;17.842;2024-01-11T01:50:10;101638.63;;;24.81;21.21
14293;BME280;62290;59.420;17.842;2024-01-11T01:52:40;101643.06;;;24.82;20.96
14293;BME280;62290;59.420;17.842;2024-01-11T01:55:12;101641.09;;;24.84;21.21
14293;BME280;62290;59.420;17.842;2024-01-11T01:57:43;101640.97;;;24.85;20.97
14293;BME280;62290;59.420;17.842;2024-01-11T02:00:13;101623.91;;;24.85;21.48
14293;BME280;62290;59.420;17.842;2024-01-11T02:02:43;101630.16;;;24.85;21.08
14293;BME280;62290;59.420;17.842;2024-01-11T02:05:14;101623.09;;;24.84;21.07
14293;BME280;62290;59.420;17.842;2024-01-11T02:07:42;101625.00;;;24.82;21.05
14293;BME280;62290;59.420;17.842;2024-01-11T02:10:12;101620.63;;;24.81;21.17
14293;BME280;62290;59.420;17.842;2024-01-11T02:12:41;101628.72;;;24.81;21.21
14293;BME280;62290;59.420;17.842;2024-01-11T02:15:09;101631.41;;;24.81;21.25
14293;BME280;62290;59.420;17.842;2024-01-11T02:17:39;101627.97;;;24.79;21.12
14293;BME280;62290;59.420;17.842;2024-01-11T02:20:09;101626.00;;;24.81;21.25
14293;BME280;62290;59.420;17.842;2024-01-11T02:22:39;101630.53;;;24.81;21.21
14293;BME280;62290;59.420;17.842;2024-01-11T02:25:09;101626.88;;;24.82;20.97
14293;BME280;62290;59.420;17.842;2024-01-11T02:27:47;101612.00;;;24.76;20.97
14293;BME280;62290;59.420;17.842;2024-01-11T02:30:16;101621.50;;;24.82;20.94
14293;BME280;62290;59.420;17.842;2024-01-11T02:32:45;101621.34;;;24.83;21.43
14293;BME280;62290;59.420;17.842;2024-01-11T02:35:15;101623.19;;;24.83;21.29
14293;BME280;62290;59.420;17.842;2024-01-11T02:37:43;101623.19;;;24.83;21.20
14293;BME280;62290;59.420;17.842;2024-01-11T02:40:14;101633.00;;;24.84;21.28
14293;BME280;62290;59.420;17.842;2024-01-11T02:42:42;101639.25;;;24.84;21.21
14293;BME280;62290;59.420;17.842;2024-01-11T02:45:10;101627.63;;;24.84;21.21
14293;BME280;62290;59.420;17.842;2024-01-11T02:47:39;101608.84;;;24.82;21.12
14293;BME280;62290;59.420;17.842;2024-01-11T02:50:08;101613.25;;;24.83;21.22
14293;BME280;62290;59.420;17.842;2024-01-11T02:52:38;101605.13;;;24.72;21.32
14293;BME280;62290;59.420;17.842;2024-01-11T02:55:07;101620.50;;;24.83;21.09
14293;BME280;62290;59.420;17.842;2024-01-11T02:57:37;101607.81;;;24.72;21.28
14293;BME280;62290;59.420;17.842;2024-01-11T03:00:06;101625.00;;;24.82;20.82
14293;BME280;62290;59.420;17.842;2024-01-11T03:02:34;101625.16;;;24.81;21.14
14293;BME280;62290;59.420;17.842;2024-01-11T03:05:02;101627.13;;;24.79;21.27
14293;BME280;62290;59.420;17.842;2024-01-11T03:07:30;101635.25;;;24.77;21.20
14293;BME280;62290;59.420;17.842;2024-01-11T03:09:59;101633.44;;;24.78;21.29
14293;BME280;62290;59.420;17.842;2024-01-11T03:12:28;101639.84;;;24.77;20.98
14293;BME280;62290;59.420;17.842;2024-01-11T03:14:57;101645.13;;;24.78;21.14
14293;BME280;62290;59.420;17.842;2024-01-11T03:17:25;101643.34;;;24.77;21.33
14293;BME280;62290;59.420;17.842;2024-01-11T03:19:53;101640.66;;;24.77;21.33
14293;BME280;62290;59.420;17.842;2024-01-11T03:22:21;101637.91;;;24.79;21.51
14293;BME280;62290;59.420;17.842;2024-01-11T03:24:49;101636.13;;;24.78;21.32
14293;BME280;62290;59.420;17.842;2024-01-11T03:27:17;101634.34;;;24.78;21.24
14293;BME280;62290;59.420;17.842;2024-01-11T03:29:45;101636.91;;;24.80;21.15
14293;BME280;62290;59.420;17.842;2024-01-11T03:32:14;101635.06;;;24.80;20.97
14293;BME280;62290;59.420;17.842;2024-01-11T03:34:42;101638.75;;;24.79;21.19
14293;BME280;62290;59.420;17.842;2024-01-11T03:37:10;101634.34;;;24.78;21.09
14293;BME280;62290;59.420;17.842;2024-01-11T03:39:38;101638.75;;;24.79;21.42
14293;BME280;62290;59.420;17.842;2024-01-11T03:42:06;101637.91;;;24.79;21.25
14293;BME280;62290;59.420;17.842;2024-01-11T03:44:36;101631.50;;;24.80;21.02
14293;BME280;62290;59.420;17.842;2024-01-11T03:47:04;101625.16;;;24.81;21.17
14293;BME280;62290;59.420;17.842;2024-01-11T03:49:34;101633.09;;;24.82;21.12
14293;BME280;62290;59.420;17.842;2024-01-11T03:52:03;101634.84;;;24.83;21.10
14293;BME280;62290;59.420;17.842;2024-01-11T03:54:31;101633.97;;;24.83;20.92
14293;BME280;62290;59.420;17.842;2024-01-11T03:56:59;101633.00;;;24.84;20.95
14293;BME280;62290;59.420;17.842;2024-01-11T03:59:27;101633.88;;;24.84;21.13
14293;BME280;62290;59.420;17.842;2024-01-11T04:01:55;101631.16;;;24.84;20.94
14293;BME280;62290;59.420;17.842;2024-01-11T04:04:23;101632.88;;;24.85;20.96
14293;BME280;62290;59.420;17.842;2024-01-11T04:06:52;101632.00;;;24.85;21.00
14293;BME280;62290;59.420;17.842;2024-01-11T04:09:20;101635.69;;;24.84;21.12
14293;BME280;62290;59.420;17.842;2024-01-11T04:11:48;101641.09;;;24.84;21.19
14293;BME280;62290;59.420;17.842;2024-01-11T04:14:16;101638.41;;;24.84;21.21
14293;BME280;62290;59.420;17.842;2024-01-11T04:16:44;101636.81;;;24.81;21.29
14293;BME280;62290;59.420;17.842;2024-01-11T04:19:13;101639.50;;;24.81;21.28
14293;BME280;62290;59.420;17.842;2024-01-11T04:21:43;101636.06;;;24.79;20.91
14293;BME280;62290;59.420;17.842;2024-01-11T04:24:12;101638.75;;;24.79;20.90
14293;BME280;62290;59.420;17.842;2024-01-11T04:26:40;101641.66;;;24.76;21.06
14293;BME280;62290;59.420;17.842;2024-01-11T04:29:08;101649.75;;;24.76;21.28
14293;BME280;62290;59.420;17.842;2024-01-11T04:31:36;101649.84;;;24.75;21.27
14293;BME280;62290;59.420;17.842;2024-01-11T04:34:04;101649.97;;;24.73;21.52
14293;BME280;62290;59.420;17.842;2024-01-11T04:36:32;101643.97;;;24.70;21.13
14293;BME280;62290;59.420;17.842;2024-01-11T04:39:00;101658.16;;;24.72;21.28
14293;BME280;62290;59.420;17.842;2024-01-11T04:41:29;101661.63;;;24.74;21.24
14293;BME280;62290;59.420;17.842;2024-01-11T04:43:57;101668.13;;;24.71;21.38
14293;BME280;62290;59.420;17.842;2024-01-11T04:46:25;101686.22;;;24.69;21.01
14293;BME280;62290;59.420;17.842;2024-01-11T04:48:53;101709.50;;;24.70;21.46
14293;BME280;62290;59.420;17.842;2024-01-11T04:51:21;101716.63;;;24.71;21.13
14293;BME280;62290;59.420;17.842;2024-01-11T04:53:49;101722.03;;;24.71;21.57
14293;BME280;62290;59.420;17.842;2024-01-11T04:56:17;101735.59;;;24.70;21.31
14293;BME280;62290;59.420;17.842;2024-01-11T04:58:47;101742.31;;;24.64;21.13
14293;BME280;62290;59.420;17.842;2024-01-11T05:01:16;101752.28;;;24.64;21.49
14293;BME280;62290;59.420;17.842;2024-01-11T05:03:45;101754.09;;;24.63;21.27
14293;BME280;62290;59.420;17.842;2024-01-11T05:06:16;101745.59;;;24.56;21.64
14293;BME280;62290;59.420;17.842;2024-01-11T05:08:46;101772.09;;;24.63;21.79
14293;BME280;62290;59.420;17.842;2024-01-11T05:11:17;101766.72;;;24.63;21.67
14293;BME280;62290;59.420;17.842;2024-01-11T05:13:47;101783.09;;;24.60;21.50
14293;BME280;62290;59.420;17.842;2024-01-11T05:16:21;101787.75;;;24.58;21.75
14293;BME280;62290;59.420;17.842;2024-01-11T05:18:50;101793.16;;;24.58;21.79
14293;BME280;62290;59.420;17.842;2024-01-11T05:21:18;101786.03;;;24.56;21.85
14293;BME280;62290;59.420;17.842;2024-01-11T05:23:47;101769.13;;;24.54;21.80
14293;BME280;62290;59.420;17.842;2024-01-11T05:26:16;101775.47;;;24.53;21.90
14293;BME280;62290;59.420;17.842;2024-01-11T05:28:44;101775.59;;;24.52;21.99
14293;BME280;62290;59.420;17.842;2024-01-11T05:31:14;101786.50;;;24.50;22.02
14293;BME280;62290;59.420;17.842;2024-01-11T05:33:44;101773.47;;;24.44;21.84
14293;BME280;62290;59.420;17.842;2024-01-11T05:36:12;101789.41;;;24.47;21.73
14293;BME280;62290;59.420;17.842;2024-01-11T05:38:40;101792.22;;;24.46;21.94
14293;BME280;62290;59.420;17.842;2024-01-11T05:41:08;101783.16;;;24.47;21.93
14293;BME280;62290;59.420;17.842;2024-01-11T05:43:37;101761.16;;;24.29;22.18
14293;BME280;62290;59.420;17.842;2024-01-11T05:46:05;101784.03;;;24.47;22.14
14293;BME280;62290;59.420;17.842;2024-01-11T05:48:35;101786.38;;;24.52;22.34
14293;BME280;62290;59.420;17.842;2024-01-11T05:51:03;101792.84;;;24.49;21.96
14293;BME280;62290;59.420;17.842;2024-01-11T05:53:31;101799.34;;;24.47;22.11
14293;BME280;62290;59.420;17.842;2024-01-11T05:56:06;101802.16;;;24.45;21.75
14293;BME280;62290;59.420;17.842;2024-01-11T05:58:35;101804.94;;;24.44;21.82
14293;BME280;62290;59.420;17.842;2024-01-11T06:01:03;101785.63;;;24.26;21.76
14293;BME280;62290;59.420;17.842;2024-01-11T06:03:31;101819.28;;;24.44;21.86
14293;BME280;62290;59.420;17.842;2024-01-11T06:06:03;101830.06;;;24.44;21.74
14293;BME280;62290;59.420;17.842;2024-01-11T06:08:32;101823.81;;;24.44;21.65
14293;BME280;62290;59.420;17.842;2024-01-11T06:11:00;101829.09;;;24.45;21.58
14293;BME280;62290;59.420;17.842;2024-01-11T06:13:28;101845.28;;;24.45;21.60
14293;BME280;62290;59.420;17.842;2024-01-11T06:15:56;101834.50;;;24.45;21.51
14293;BME280;62290;59.420;17.842;2024-01-11T06:18:24;101841.81;;;24.43;21.48
14293;BME280;62290;59.420;17.842;2024-01-11T06:20:52;101851.84;;;24.41;21.74
14293;BME280;62290;59.420;17.842;2024-01-11T06:23:22;101878.06;;;24.39;21.54
14293;BME280;62290;59.420;17.842;2024-01-11T06:25:51;101895.19;;;24.38;21.53
14293;BME280;62290;59.420;17.842;2024-01-11T06:28:19;101887.22;;;24.37;21.64
14293;BME280;62290;59.420;17.842;2024-01-11T06:30:47;101874.59;;;24.37;21.73
14293;BME280;62290;59.420;17.842;2024-01-11T06:33:15;101867.50;;;24.36;21.59
14293;BME280;62290;59.420;17.842;2024-01-11T06:35:43;101881.31;;;24.32;21.82
14293;BME280;62290;59.420;17.842;2024-01-11T06:38:12;101890.34;;;24.31;21.89
14293;BME280;62290;59.420;17.842;2024-01-11T06:40:41;101896.47;;;24.33;22.18
14293;BME280;62290;59.420;17.842;2024-01-11T06:43:09;101893.78;;;24.33;22.22
14293;BME280;62290;59.420;17.842;2024-01-11T06:45:38;101906.28;;;24.34;21.90
14293;BME280;62290;59.420;17.842;2024-01-11T06:48:06;101909.00;;;24.34;22.16
14293;BME280;62290;59.420;17.842;2024-01-11T06:50:34;101914.50;;;24.32;21.99
14293;BME280;62290;59.420;17.842;2024-01-11T06:53:03;101912.88;;;24.30;21.97
14293;BME280;62290;59.420;17.842;2024-01-11T06:55:31;101911.50;;;24.24;21.98
14293;BME280;62290;59.420;17.842;2024-01-11T06:58:00;101923.75;;;24.28;21.62
14293;BME280;62290;59.420;17.842;2024-01-11T07:00:29;101924.84;;;24.26;21.66
14293;BME280;62290;59.420;17.842;2024-01-11T07:02:57;101928.50;;;24.25;22.04
14293;BME280;62290;59.420;17.842;2024-01-11T07:05:25;101927.66;;;24.24;21.53
14293;BME280;62290;59.420;17.842;2024-01-11T07:07:53;101938.53;;;24.23;21.51
14293;BME280;62290;59.420;17.842;2024-01-11T07:10:23;101942.19;;;24.22;21.46
14293;BME280;62290;59.420;17.842;2024-01-11T07:12:51;101951.25;;;24.21;21.62
14293;BME280;62290;59.420;17.842;2024-01-11T07:15:20;101949.28;;;24.23;21.42
14293;BME280;62290;59.420;17.842;2024-01-11T07:17:49;101953.94;;;24.21;21.76
14293;BME280;62290;59.420;17.842;2024-01-11T07:20:17;101972.91;;;24.19;21.50
14293;BME280;62290;59.420;17.842;2024-01-11T07:22:45;101969.34;;;24.19;21.46
14293;BME280;62290;59.420;17.842;2024-01-11T07:25:13;101980.13;;;24.19;21.47
14293;BME280;62290;59.420;17.842;2024-01-11T07:27:41;101987.34;;;24.18;21.59
14293;BME280;62290;59.420;17.842;2024-01-11T07:30:11;101991.00;;;24.17;21.59
14293;BME280;62290;59.420;17.842;2024-01-11T07:32:40;101995.53;;;24.17;21.21
14293;BME280;62290;59.420;17.842;2024-01-11T07:35:09;101992.94;;;24.15;21.29
14293;BME280;62290;59.420;17.842;2024-01-11T07:37:44;101984.97;;;24.14;21.37
14293;BME280;62290;59.420;17.842;2024-01-11T07:40:12;102000.28;;;24.13;21.36
14293;BME280;62290;59.420;17.842;2024-01-11T07:42:40;102017.31;;;24.14;21.49
14293;BME280;62290;59.420;17.842;2024-01-11T07:45:09;102020.94;;;24.13;21.42
14293;BME280;62290;59.420;17.842;2024-01-11T07:47:38;101968.19;;;23.83;21.15
14293;BME280;62290;59.420;17.842;2024-01-11T07:50:08;102022.91;;;24.11;21.13
14293;BME280;62290;59.420;17.842;2024-01-11T07:52:38;102020.28;;;24.09;21.26
14293;BME280;62290;59.420;17.842;2024-01-11T07:55:09;102024.84;;;24.09;21.41
14293;BME280;62290;59.420;17.842;2024-01-11T07:57:39;102025.75;;;24.08;21.12
14293;BME280;62290;59.420;17.842;2024-01-11T08:00:08;102034.78;;;24.07;21.09
14293;BME280;62290;59.420;17.842;2024-01-11T08:02:39;102045.69;;;24.05;21.17
14293;BME280;62290;59.420;17.842;2024-01-11T08:05:09;102046.56;;;24.06;21.09
14293;BME280;62290;59.420;17.842;2024-01-11T08:07:37;102058.28;;;24.05;21.01
14293;BME280;62290;59.420;17.842;2024-01-11T08:10:07;102051.94;;;24.06;21.43
14293;BME280;62290;59.420;17.842;2024-01-11T08:12:36;102058.19;;;24.06;21.15
14293;BME280;62290;59.420;17.842;2024-01-11T08:15:05;102067.06;;;24.08;21.19
14293;BME280;62290;59.420;17.842;2024-01-11T08:17:33;102070.69;;;24.07;21.21
14293;BME280;62290;59.420;17.842;2024-01-11T08:20:04;102068.84;;;24.08;21.19
14293;BME280;62290;59.420;17.842;2024-01-11T08:22:36;102076.00;;;24.09;21.12
14293;BME280;62290;59.420;17.842;2024-01-11T08:25:05;102073.31;;;24.09;21.29
14293;BME280;62290;59.420;17.842;2024-01-11T08:27:33;102086.78;;;24.09;21.01
14293;BME280;62290;59.420;17.842;2024-01-11T08:30:01;102092.16;;;24.09;21.10
14293;BME280;62290;59.420;17.842;2024-01-11T08:32:31;102094.88;;;24.09;21.02
14293;BME280;62290;59.420;17.842;2024-01-11T08:35:06;102107.47;;;24.08;21.22
14293;BME280;62290;59.420;17.842;2024-01-11T08:37:38;102108.34;;;24.09;21.17
14293;BME280;62290;59.420;17.842;2024-01-11T08:40:07;102119.09;;;24.09;21.05
14293;BME280;62290;59.420;17.842;2024-01-11T08:42:36;102124.50;;;24.09;20.79
14293;BME280;62290;59.420;17.842;2024-01-11T08:45:05;102141.50;;;24.09;21.13
14293;BME280;62290;59.420;17.842;2024-01-11T08:47:34;102138.00;;;24.07;20.92
14293;BME280;62290;59.420;17.842;2024-01-11T08:50:03;102151.19;;;24.12;20.78
14293;BME280;62290;59.420;17.842;2024-01-11T08:52:33;102148.63;;;24.10;20.85
14293;BME280;62290;59.420;17.842;2024-01-11T08:55:02;102153.88;;;24.12;20.71
14293;BME280;62290;59.420;17.842;2024-01-11T08:57:30;102160.25;;;24.11;20.64
14293;BME280;62290;59.420;17.842;2024-01-11T08:59:58;102159.28;;;24.12;20.60
14293;BME280;62290;59.420;17.842;2024-01-11T09:02:26;102167.47;;;24.10;20.63
14293;BME280;62290;59.420;17.842;2024-01-11T09:04:54;102165.66;;;24.11;20.65
14293;BME280;62290;59.420;17.842;2024-01-11T09:07:22;102163.91;;;24.10;20.39
14293;BME280;62290;59.420;17.842;2024-01-11T09:09:50;102163.91;;;24.10;20.52
14293;BME280;62290;59.420;17.842;2024-01-11T09:12:24;102160.44;;;24.08;20.65
14293;BME280;62290;59.420;17.842;2024-01-11T09:14:53;102169.41;;;24.08;20.57
14293;BME280;62290;59.420;17.842;2024-01-11T09:17:21;102179.13;;;24.11;20.50
14293;BME280;62290;59.420;17.842;2024-01-11T09:19:50;102180.94;;;24.10;20.27
14293;BME280;62290;59.420;17.842;2024-01-11T09:22:18;102181.81;;;24.11;20.37
14293;BME280;62290;59.420;17.842;2024-01-11T09:24:46;102147.00;;;23.93;20.56
14293;BME280;62290;59.420;17.842;2024-01-11T09:27:14;102192.59;;;24.11;20.30
14293;BME280;62290;59.420;17.842;2024-01-11T09:29:44;102157.56;;;23.96;20.29
14293;BME280;62290;59.420;17.842;2024-01-11T09:32:12;102189.78;;;24.12;20.48
14293;BME280;62290;59.420;17.842;2024-01-11T09:34:40;102191.59;;;24.12;20.47
14293;BME280;62290;59.420;17.842;2024-01-11T09:37:12;102191.59;;;24.12;20.31
14293;BME280;62290;59.420;17.842;2024-01-11T09:39:40;102202.38;;;24.12;20.28
14293;BME280;62290;59.420;17.842;2024-01-11T09:42:09;102207.75;;;24.12;20.23
14293;BME280;62290;59.420;17.842;2024-01-11T09:44:38;102193.53;;;24.10;20.05
14293;BME280;62290;59.420;17.842;2024-01-11T09:47:08;102188.16;;;24.10;20.22
14293;BME280;62290;59.420;17.842;2024-01-11T09:49:43;102200.81;;;24.08;20.07
14293;BME280;62290;59.420;17.842;2024-01-11T09:52:12;102200.94;;;24.06;19.95
14293;BME280;62290;59.420;17.842;2024-01-11T09:54:43;102204.72;;;24.04;19.74
14293;BME280;62290;59.420;17.842;2024-01-11T09:57:12;102206.59;;;24.02;19.69
14293;BME280;62290;59.420;17.842;2024-01-11T09:59:41;102219.25;;;24.01;19.54
14293;BME280;62290;59.420;17.842;2024-01-11T10:02:12;102226.44;;;24.01;19.43
14293;BME280;62290;59.420;17.842;2024-01-11T10:04:42;102226.44;;;24.01;19.56
14293;BME280;62290;59.420;17.842;2024-01-11T10:07:10;102229.13;;;24.01;19.56
14293;BME280;62290;59.420;17.842;2024-01-11T10:09:38;102239.13;;;23.98;19.38
14293;BME280;62290;59.420;17.842;2024-01-11T10:12:08;102245.50;;;23.98;20.22
14293;BME280;62290;59.420;17.842;2024-01-11T10:14:36;102248.19;;;23.98;21.67
14293;BME280;62290;59.420;17.842;2024-01-11T10:17:05;102252.59;;;23.98;21.62
14293;BME280;62290;59.420;17.842;2024-01-11T10:19:34;102256.16;;;23.99;21.54
14293;BME280;62290;59.420;17.842;2024-01-11T10:22:03;102257.13;;;23.98;21.39
14293;BME280;62290;59.420;17.842;2024-01-11T10:24:32;102268.75;;;23.98;21.28
14293;BME280;62290;59.420;17.842;2024-01-11T10:27:02;102276.06;;;23.96;21.04
14293;BME280;62290;59.420;17.842;2024-01-11T10:29:31;102275.31;;;23.94;20.99
14293;BME280;62290;59.420;17.842;2024-01-11T10:31:59;102278.13;;;23.93;21.01
14293;BME280;62290;59.420;17.842;2024-01-11T10:34:27;102293.41;;;23.92;20.93
14293;BME280;62290;59.420;17.842;2024-01-11T10:36:57;102302.44;;;23.91;20.76
14293;BME280;62290;59.420;17.842;2024-01-11T10:39:26;102306.09;;;23.90;20.77
14293;BME280;62290;59.420;17.842;2024-01-11T10:42:06;102311.50;;;23.90;20.61
14293;BME280;62290;59.420;17.842;2024-01-11T10:44:35;102321.47;;;23.88;20.35
14293;BME280;62290;59.420;17.842;2024-01-11T10:47:04;102320.63;;;23.88;20.26
14293;BME280;62290;59.420;17.842;2024-01-11T10:49:36;102315.25;;;23.88;20.13
14293;BME280;62290;59.420;17.842;2024-01-11T10:52:09;102334.09;;;23.88;20.00
14293;BME280;62290;59.420;17.842;2024-01-11T10:54:40;102336.00;;;23.86;20.11
14293;BME280;62290;59.420;17.842;2024-01-11T10:57:09;102343.22;;;23.85;19.96
14293;BME280;62290;59.420;17.842;2024-01-11T10:59:39;102338.81;;;23.84;19.76
14293;BME280;62290;59.420;17.842;2024-01-11T11:02:10;102338.81;;;23.84;19.95
14293;BME280;62290;59.420;17.842;2024-01-11T11:04:42;102328.97;;;23.83;19.62
14293;BME280;62290;59.420;17.842;2024-01-11T11:07:12;102337.94;;;23.84;19.50
14293;BME280;62290;59.420;17.842;2024-01-11T11:09:42;102339.00;;;23.81;19.54
14293;BME280;62290;59.420;17.842;2024-01-11T11:12:12;102346.19;;;23.81;19.38
14293;BME280;62290;59.420;17.842;2024-01-11T11:14:41;102351.69;;;23.79;19.41
14293;BME280;62290;59.420;17.842;2024-01-11T11:17:10;102341.97;;;23.77;19.19
14293;BME280;62290;59.420;17.842;2024-01-11T11:19:39;102349.19;;;23.76;19.24
14293;BME280;62290;59.420;17.842;2024-01-11T11:22:07;102354.69;;;23.75;19.10
14293;BME280;62290;59.420;17.842;2024-01-11T11:24:36;102359.25;;;23.73;18.98
14293;BME280;62290;59.420;17.842;2024-01-11T11:27:05;102364.75;;;23.71;19.02
14293;BME280;62290;59.420;17.842;2024-01-11T11:29:34;102367.56;;;23.70;18.99
14293;BME280;62290;59.420;17.842;2024-01-11T11:32:02;102366.88;;;23.66;19.05
14293;BME280;62290;59.420;17.842;2024-01-11T11:34:40;102372.06;;;23.69;18.96
14293;BME280;62290;59.420;17.842;2024-01-11T11:37:09;102363.19;;;23.67;18.89
14293;BME280;62290;59.420;17.842;2024-01-11T11:39:39;102380.34;;;23.66;18.92
14293;BME280;62290;59.420;17.842;2024-01-11T11:42:09;102384.94;;;23.64;18.72
14293;BME280;62290;59.420;17.842;2024-01-11T11:44:47;102377.34;;;23.57;18.76
14293;BME280;62290;59.420;17.842;2024-01-11T11:47:19;102374.44;;;23.60;18.69
14293;BME280;62290;59.420;17.842;2024-01-11T11:50:13;102377.13;;;23.60;18.51
14293;BME280;62290;59.420;17.842;2024-01-11T11:52:41;102373.69;;;23.58;18.52
14293;BME280;62290;59.420;17.842;2024-01-11T11:55:11;102372.81;;;23.57;18.46
14293;BME280;62290;59.420;17.842;2024-01-11T11:57:42;102377.34;;;23.57;18.54
14293;BME280;62290;59.420;17.842;2024-01-11T12:00:13;102377.53;;;23.54;18.43
14293;BME280;62290;59.420;17.842;2024-01-11T12:02:43;102385.69;;;23.52;18.40
14293;BME280;62290;59.420;17.842;2024-01-11T12:05:11;102387.50;;;23.52;18.37
14293;BME280;62290;59.420;17.842;2024-01-11T12:07:39;102386.66;;;23.51;18.21
14293;BME280;62290;59.420;17.842;2024-01-11T12:10:07;102390.31;;;23.50;18.42
14293;BME280;62290;59.420;17.842;2024-01-11T12:12:37;102392.03;;;23.51;18.17
14293;BME280;62290;59.420;17.842;2024-01-11T12:15:05;102398.38;;;23.50;18.26
14293;BME280;62290;59.420;17.842;2024-01-11T12:17:34;102409.13;;;23.50;17.99
14293;BME280;62290;59.420;17.842;2024-01-11T12:20:03;102402.88;;;23.50;17.96
14293;BME280;62290;59.420;17.842;2024-01-11T12:22:31;102402.81;;;23.51;17.91
14293;BME280;62290;59.420;17.842;2024-01-11T12:24:59;102409.81;;;23.54;17.81
14293;BME280;62290;59.420;17.842;2024-01-11T12:27:27;102413.28;;;23.56;17.84
14293;BME280;62290;59.420;17.842;2024-01-11T12:29:57;102415.03;;;23.57;17.66
14293;BME280;62290;59.420;17.842;2024-01-11T12:32:26;102422.13;;;23.58;17.56
14293;BME280;62290;59.420;17.842;2024-01-11T12:34:54;102426.63;;;23.57;17.53
14293;BME280;62290;59.420;17.842;2024-01-11T12:37:23;102430.13;;;23.59;17.62
14293;BME280;62290;59.420;17.842;2024-01-11T12:39:57;102427.31;;;23.61;17.54
14293;BME280;62290;59.420;17.842;2024-01-11T12:42:25;102428.28;;;23.60;17.44
14293;BME280;62290;59.420;17.842;2024-01-11T12:44:54;102429.06;;;23.62;17.57
14293;BME280;62290;59.420;17.842;2024-01-11T12:47:26;102438.09;;;23.61;17.54
14293;BME280;62290;59.420;17.842;2024-01-11T12:49:54;102437.16;;;23.62;17.49